createdAt,value
2022-12-24T00:00:05.896Z,40.92
2022-12-24T00:03:11.545Z,39.75
2022-12-24T00:06:24.206Z,34.03
2022-12-24T00:09:30.867Z,35.98
2022-12-24T00:12:38.638Z,38.40
2022-12-24T00:15:44.070Z,38.60
2022-12-24T00:18:50.176Z,42.62
2022-12-24T00:21:56.275Z,41.00
2022-12-24T00:25:02.922Z,40.80
2022-12-24T00:28:09.238Z,38.35
2022-12-24T00:31:14.026Z,40.17
2022-12-24T00:34:21.075Z,43.33
2022-12-24T00:37:26.653Z,42.03
2022-12-24T00:40:33.222Z,41.28
2022-12-24T00:43:38.168Z,40.67
2022-12-24T00:46:44.328Z,42.23
2022-12-24T00:49:49.507Z,44.48
2022-12-24T00:52:56.211Z,42.83
2022-12-24T00:56:01.170Z,41.02
2022-12-24T00:59:06.234Z,41.42
2022-12-24T01:02:12.315Z,44.58
2022-12-24T01:05:17.930Z,46.70
2022-12-24T01:08:24.851Z,46.83
2022-12-24T01:11:31.725Z,39.98
2022-12-24T01:14:37.864Z,52.62
2022-12-24T01:17:46.064Z,46.58
2022-12-24T01:20:51.138Z,44.85
2022-12-24T01:23:57.354Z,43.75
2022-12-24T01:27:02.727Z,47.35
2022-12-24T01:30:08.138Z,47.98
2022-12-24T01:33:14.266Z,44.05
2022-12-24T01:36:20.989Z,44.98
2022-12-24T01:39:26.061Z,45.95
2022-12-24T01:42:55.784Z,45.12
2022-12-24T01:46:08.472Z,44.38
2022-12-24T01:49:17.598Z,44.35
2022-12-24T01:52:29.957Z,48.15
2022-12-24T01:55:36.455Z,46.20
2022-12-24T01:58:44.743Z,47.65
2022-12-24T02:01:52.014Z,44.60
2022-12-24T02:05:12.156Z,48.00
2022-12-24T02:08:18.200Z,41.68
2022-12-24T02:11:34.296Z,43.78
2022-12-24T02:14:39.631Z,44.60
2022-12-24T02:17:55.691Z,47.90
2022-12-24T02:21:30.858Z,45.60
2022-12-24T02:24:41.213Z,49.18
2022-12-24T02:28:02.849Z,49.53
2022-12-24T02:31:18.310Z,49.35
2022-12-24T02:34:35.866Z,47.33
2022-12-24T02:37:46.306Z,53.33
2022-12-24T02:40:56.713Z,52.98
2022-12-24T02:44:02.114Z,42.98
2022-12-24T02:47:08.353Z,52.10
2022-12-24T02:50:16.248Z,50.23
2022-12-24T02:53:23.647Z,52.45
2022-12-24T02:57:06.718Z,47.30
2022-12-24T03:00:23.362Z,47.08
2022-12-24T03:03:52.698Z,51.70
2022-12-24T03:07:12.350Z,41.10
2022-12-24T03:10:57.843Z,43.68
2022-12-24T03:14:04.582Z,48.45
2022-12-24T03:17:11.645Z,44.20
2022-12-24T03:20:17.468Z,47.23
2022-12-24T03:23:22.625Z,47.75
2022-12-24T03:26:29.247Z,47.75
2022-12-24T03:29:34.447Z,44.08
2022-12-24T03:32:46.457Z,43.92
2022-12-24T03:35:52.224Z,52.97
2022-12-24T03:38:58.172Z,44.95
2022-12-24T03:42:04.420Z,44.33
2022-12-24T03:45:09.303Z,50.98
2022-12-24T03:48:17.740Z,49.80
2022-12-24T03:51:32.049Z,55.38
2022-12-24T03:54:37.196Z,50.30
2022-12-24T03:57:43.271Z,54.10
2022-12-24T04:00:49.467Z,58.68
2022-12-24T04:03:55.908Z,58.35
2022-12-24T04:07:02.211Z,56.85
2022-12-24T04:10:08.629Z,52.20
2022-12-24T04:13:13.940Z,53.87
2022-12-24T04:16:23.194Z,58.68
2022-12-24T04:19:30.336Z,59.73
2022-12-24T04:22:36.589Z,57.45
2022-12-24T04:25:43.855Z,65.70
2022-12-24T04:28:48.892Z,63.73
2022-12-24T04:31:54.908Z,71.15
2022-12-24T04:35:00.608Z,70.12
2022-12-24T04:38:06.595Z,74.97
2022-12-24T04:41:25.277Z,71.35
2022-12-24T04:44:30.645Z,71.05
2022-12-24T04:47:36.855Z,75.70
2022-12-24T04:50:42.024Z,66.33
2022-12-24T04:53:47.535Z,72.78
2022-12-24T04:56:53.278Z,73.37
2022-12-24T04:59:59.166Z,72.78
2022-12-24T05:03:05.008Z,72.72
2022-12-24T05:06:19.563Z,66.02
2022-12-24T05:09:26.866Z,63.92
2022-12-24T05:12:33.536Z,80.35
2022-12-24T05:15:39.107Z,64.95
2022-12-24T05:18:44.580Z,65.67
2022-12-24T05:21:50.894Z,75.67
2022-12-24T05:25:14.673Z,75.22
2022-12-24T05:31:26.910Z,77.67
2022-12-24T05:34:32.962Z,68.25
2022-12-24T05:37:39.481Z,67.72
2022-12-24T05:40:48.497Z,72.27
2022-12-24T05:43:54.954Z,70.67
2022-12-24T05:47:03.365Z,73.78
2022-12-24T05:50:09.867Z,79.42
2022-12-24T05:53:18.162Z,63.10
2022-12-24T05:56:32.495Z,70.70
2022-12-24T05:59:38.665Z,68.50
2022-12-24T06:02:44.763Z,74.40
2022-12-24T06:05:50.896Z,72.03
2022-12-24T06:08:57.485Z,80.32
2022-12-24T06:12:02.897Z,82.17
2022-12-24T06:15:08.538Z,83.30
2022-12-24T06:18:14.986Z,117.00
2022-12-24T06:21:21.747Z,91.57
2022-12-24T06:24:27.277Z,85.28
2022-12-24T06:27:34.154Z,89.30
2022-12-24T06:30:40.007Z,89.17
2022-12-24T06:33:46.385Z,82.97
2022-12-24T06:36:52.153Z,100.25
2022-12-24T06:39:57.975Z,85.15
2022-12-24T06:43:02.975Z,74.35
2022-12-24T06:46:08.572Z,74.25
2022-12-24T06:49:15.016Z,73.22
2022-12-24T06:52:20.303Z,63.80
2022-12-24T06:55:25.787Z,80.62
2022-12-24T06:58:31.885Z,76.62
2022-12-24T07:01:37.862Z,77.55
2022-12-24T07:04:42.926Z,72.17
2022-12-24T07:07:47.629Z,65.57
2022-12-24T07:10:54.520Z,65.97
2022-12-24T07:14:01.887Z,70.10
2022-12-24T07:17:07.489Z,68.30
2022-12-24T07:20:14.614Z,74.12
2022-12-24T07:23:20.119Z,97.75
2022-12-24T07:26:25.647Z,131.10
2022-12-24T07:29:31.396Z,140.60
2022-12-24T07:32:37.987Z,78.37
2022-12-24T07:35:44.819Z,70.25
2022-12-24T07:38:50.360Z,58.73
2022-12-24T07:41:57.252Z,61.00
2022-12-24T07:45:03.714Z,60.95
2022-12-24T07:48:10.102Z,63.38
2022-12-24T07:51:15.298Z,58.73
2022-12-24T07:54:21.347Z,56.63
2022-12-24T07:57:26.826Z,59.15
2022-12-24T08:00:33.416Z,55.00
2022-12-24T08:03:40.513Z,57.98
2022-12-24T08:06:46.735Z,67.80
2022-12-24T08:09:57.061Z,57.62
2022-12-24T08:13:03.362Z,51.55
2022-12-24T08:16:08.875Z,53.00
2022-12-24T08:19:17.426Z,58.02
2022-12-24T08:22:23.414Z,60.05
2022-12-24T08:25:28.709Z,55.63
2022-12-24T08:28:35.108Z,60.98
2022-12-24T08:31:43.528Z,56.88
2022-12-24T08:34:50.142Z,60.73
2022-12-24T08:37:58.066Z,57.93
2022-12-24T08:41:04.012Z,60.28
2022-12-24T08:44:10.934Z,57.25
2022-12-24T08:47:20.011Z,53.63
2022-12-24T08:50:26.208Z,59.42
2022-12-24T08:53:34.042Z,61.28
2022-12-24T08:56:42.811Z,60.45
2022-12-24T08:59:47.665Z,55.63
2022-12-24T09:02:56.253Z,59.35
2022-12-24T09:06:03.110Z,60.17
2022-12-24T09:09:10.568Z,62.88
2022-12-24T09:12:20.070Z,58.50
2022-12-24T09:15:26.336Z,66.75
2022-12-24T09:18:34.229Z,60.28
2022-12-24T09:21:39.786Z,62.25
2022-12-24T09:24:47.026Z,64.55
2022-12-24T09:27:54.102Z,62.78
2022-12-24T09:31:00.175Z,64.42
2022-12-24T09:34:06.068Z,64.22
2022-12-24T09:37:13.366Z,62.27
2022-12-24T09:40:21.183Z,64.27
2022-12-24T09:43:38.776Z,58.52
2022-12-24T09:46:50.533Z,58.13
2022-12-24T09:49:59.463Z,50.48
2022-12-24T09:53:08.297Z,55.23
2022-12-24T09:56:15.776Z,57.48
2022-12-24T09:59:34.579Z,58.58
2022-12-24T10:02:42.886Z,51.70
2022-12-24T10:06:04.118Z,48.45
2022-12-24T10:09:26.937Z,49.37
2022-12-24T10:12:50.482Z,52.67
2022-12-24T10:16:21.170Z,55.40
2022-12-24T10:19:40.908Z,53.83
2022-12-24T10:23:17.536Z,52.98
2022-12-24T10:26:42.794Z,56.73
2022-12-24T10:29:56.575Z,48.55
2022-12-24T10:33:07.509Z,55.28
2022-12-24T10:36:13.577Z,56.30
2022-12-24T10:39:21.093Z,61.37
2022-12-24T10:42:26.503Z,57.10
2022-12-24T10:45:36.814Z,55.95
2022-12-24T10:48:52.658Z,53.33
2022-12-24T10:52:11.858Z,45.90
2022-12-24T10:55:28.271Z,47.62
2022-12-24T10:58:35.390Z,47.30
2022-12-24T11:02:02.360Z,51.00
2022-12-24T11:05:09.401Z,39.13
2022-12-24T11:08:32.233Z,37.48
2022-12-24T11:11:38.301Z,35.95
2022-12-24T11:14:49.909Z,37.35
2022-12-24T11:17:56.136Z,40.65
2022-12-24T11:21:07.635Z,39.48
2022-12-24T11:24:29.735Z,37.38
2022-12-24T11:27:46.905Z,36.00
2022-12-24T11:30:52.855Z,35.90
2022-12-24T11:34:07.049Z,36.77
2022-12-24T11:37:39.195Z,38.00
2022-12-24T11:40:52.499Z,40.33
2022-12-24T11:44:01.260Z,45.15
2022-12-24T11:47:07.377Z,43.42
2022-12-24T11:50:18.673Z,39.63
2022-12-24T11:53:34.585Z,37.65
2022-12-24T11:56:53.163Z,37.00
2022-12-24T12:00:03.587Z,35.90
2022-12-24T12:03:11.143Z,39.67
2022-12-24T12:06:17.904Z,37.53
2022-12-24T12:09:29.885Z,40.98
2022-12-24T12:12:42.432Z,40.40
2022-12-24T12:16:07.442Z,37.48
2022-12-24T12:19:20.336Z,42.15
2022-12-24T12:22:33.703Z,46.65
2022-12-24T12:25:52.178Z,40.63
2022-12-24T12:29:15.163Z,41.28
2022-12-24T12:32:23.692Z,42.20
2022-12-24T12:35:47.994Z,44.10
2022-12-24T12:38:56.183Z,43.52
2022-12-24T12:42:44.891Z,44.08
2022-12-24T12:46:10.236Z,44.60
2022-12-24T12:49:41.576Z,44.03
2022-12-24T12:53:29.007Z,39.73
2022-12-24T12:56:47.932Z,43.40
2022-12-24T13:00:06.399Z,42.08
2022-12-24T13:03:29.102Z,43.83
2022-12-24T13:06:54.592Z,41.85
2022-12-24T13:10:13.461Z,40.20
2022-12-24T13:13:50.319Z,43.87
2022-12-24T13:17:34.238Z,42.90
2022-12-24T13:20:46.279Z,43.45
2022-12-24T13:23:51.770Z,45.73
2022-12-24T13:26:58.130Z,47.40
2022-12-24T13:30:21.506Z,48.35
2022-12-24T13:33:30.701Z,46.42
2022-12-24T13:36:36.846Z,47.85
2022-12-24T13:39:42.424Z,47.90
2022-12-24T13:43:19.057Z,50.43
2022-12-24T13:46:23.969Z,50.00
2022-12-24T13:49:57.120Z,48.40
2022-12-24T13:53:08.587Z,54.33
2022-12-24T13:56:29.176Z,58.38
2022-12-24T13:59:51.511Z,58.92
2022-12-24T14:03:20.772Z,61.00
2022-12-24T14:06:47.321Z,59.05
2022-12-24T14:09:53.743Z,62.62
2022-12-24T14:13:04.863Z,58.78
2022-12-24T14:16:16.668Z,54.05
2022-12-24T14:19:35.368Z,46.73
2022-12-24T14:22:59.425Z,49.50
2022-12-24T14:26:05.923Z,47.48
2022-12-24T14:29:24.593Z,49.93
2022-12-24T14:32:30.907Z,54.63
2022-12-24T14:35:39.177Z,47.10
2022-12-24T14:38:44.978Z,48.83
2022-12-24T14:42:13.999Z,54.83
2022-12-24T14:45:49.982Z,51.70
2022-12-24T14:53:04.794Z,55.52
2022-12-24T14:56:00.605Z,54.33
2022-12-24T14:59:10.032Z,55.50
2022-12-24T15:02:38.030Z,57.10
2022-12-24T15:05:44.647Z,53.92
2022-12-24T15:09:02.685Z,50.78
2022-12-24T15:12:12.343Z,45.67
2022-12-24T15:15:16.990Z,49.67
2022-12-24T15:18:24.136Z,45.25
2022-12-24T15:21:37.312Z,45.08
2022-12-24T15:24:49.228Z,46.13
2022-12-24T15:27:56.236Z,45.73
2022-12-24T15:31:03.752Z,62.75
2022-12-24T15:34:11.349Z,60.30
2022-12-24T15:37:27.121Z,56.55
2022-12-24T15:40:36.733Z,57.65
2022-12-24T15:43:42.615Z,65.32
2022-12-24T15:46:48.907Z,70.03
2022-12-24T15:49:58.647Z,55.55
2022-12-24T15:53:19.310Z,54.38
2022-12-24T15:56:27.342Z,51.85
2022-12-24T15:59:37.765Z,51.88
2022-12-24T16:03:00.024Z,57.35
2022-12-24T16:06:25.241Z,65.40
2022-12-24T16:09:56.052Z,66.53
2022-12-24T16:13:00.909Z,58.40
2022-12-24T16:16:10.176Z,57.03
2022-12-24T16:19:17.022Z,51.95
2022-12-24T16:22:42.299Z,57.38
2022-12-24T16:25:48.680Z,47.25
2022-12-24T16:28:54.729Z,53.95
2022-12-24T16:32:06.227Z,51.28
2022-12-24T16:35:11.010Z,52.43
2022-12-24T16:38:16.836Z,49.48
2022-12-24T16:41:22.678Z,54.55
2022-12-24T16:44:29.321Z,51.90
2022-12-24T16:47:43.315Z,52.80
2022-12-24T16:50:48.256Z,49.50
2022-12-24T16:53:54.949Z,50.20
2022-12-24T16:57:01.753Z,53.15
2022-12-24T17:00:09.768Z,59.83
2022-12-24T17:03:14.476Z,65.62
2022-12-24T17:06:21.978Z,72.82
2022-12-24T17:09:28.605Z,78.07
2022-12-24T17:12:34.646Z,80.40
2022-12-24T17:15:40.554Z,84.03
2022-12-24T17:18:46.190Z,91.92
2022-12-24T17:21:52.956Z,105.10
2022-12-24T17:24:58.728Z,98.03
2022-12-24T17:28:05.621Z,102.27
2022-12-24T17:31:10.799Z,103.15
2022-12-24T17:34:16.411Z,107.58
2022-12-24T17:37:24.249Z,108.57
2022-12-24T17:40:31.632Z,108.87
2022-12-24T17:43:37.382Z,114.42
2022-12-24T17:46:43.550Z,108.37
2022-12-24T17:49:48.732Z,110.57
2022-12-24T17:52:55.910Z,104.17
2022-12-24T17:56:00.873Z,108.40
2022-12-24T17:59:07.230Z,101.90
2022-12-24T18:02:12.365Z,107.83
2022-12-24T18:05:19.082Z,100.97
2022-12-24T18:08:24.519Z,106.07
2022-12-24T18:11:39.959Z,107.37
2022-12-24T18:14:48.040Z,108.25
2022-12-24T18:17:53.509Z,107.83
2022-12-24T18:21:00.914Z,108.87
2022-12-24T18:24:05.790Z,99.85
2022-12-24T18:27:13.163Z,99.40
2022-12-24T18:30:27.626Z,102.65
2022-12-24T18:33:29.796Z,106.50
2022-12-24T18:36:35.820Z,113.90
2022-12-24T18:39:43.405Z,111.77
2022-12-24T18:42:50.676Z,107.58
2022-12-24T18:45:58.591Z,101.97
2022-12-24T18:49:06.387Z,104.40
2022-12-24T18:52:16.574Z,112.08
2022-12-24T18:55:21.592Z,108.57
2022-12-24T18:58:27.678Z,103.45
2022-12-24T19:01:37.779Z,108.27
2022-12-24T19:04:45.244Z,103.38
2022-12-24T19:07:52.076Z,93.90
2022-12-24T19:10:59.124Z,94.60
2022-12-24T19:14:08.922Z,93.50
2022-12-24T19:17:14.902Z,93.27
2022-12-24T19:20:21.005Z,103.87
2022-12-24T19:23:29.965Z,101.05
2022-12-24T19:26:35.421Z,86.40
2022-12-24T19:29:42.767Z,100.95
2022-12-24T19:32:48.551Z,103.65
2022-12-24T19:35:53.904Z,103.90
2022-12-24T19:39:00.922Z,107.45
2022-12-24T19:42:07.038Z,112.60
2022-12-24T19:45:12.111Z,105.95
2022-12-24T19:48:19.306Z,107.58
2022-12-24T19:51:27.549Z,108.92
2022-12-24T19:54:34.203Z,128.27
2022-12-24T19:57:39.459Z,149.72
2022-12-24T20:00:45.566Z,199.35
2022-12-24T20:03:52.456Z,227.25
2022-12-24T20:07:00.698Z,222.90
2022-12-24T20:10:06.950Z,155.25
2022-12-24T20:13:14.206Z,141.88
2022-12-24T20:16:22.868Z,125.33
2022-12-24T20:19:29.252Z,116.37
2022-12-24T20:22:36.295Z,112.50
2022-12-24T20:25:42.044Z,119.95
2022-12-24T20:28:51.215Z,124.70
2022-12-24T20:31:58.589Z,114.72
2022-12-24T20:35:06.927Z,122.62
2022-12-24T20:38:13.295Z,118.13
2022-12-24T20:41:20.367Z,116.33
2022-12-24T20:44:26.978Z,116.30
2022-12-24T20:47:33.208Z,117.60
2022-12-24T20:50:39.407Z,121.90
2022-12-24T20:53:47.599Z,128.53
2022-12-24T20:56:57.907Z,135.00
2022-12-24T21:00:06.040Z,132.72
2022-12-24T21:03:12.467Z,125.15
2022-12-24T21:06:20.411Z,131.70
2022-12-24T21:09:27.726Z,145.90
2022-12-24T21:12:51.748Z,143.57
2022-12-24T21:15:59.445Z,160.25
2022-12-24T21:19:04.465Z,138.45
2022-12-24T21:22:09.671Z,126.62
2022-12-24T21:25:16.209Z,133.87
2022-12-24T21:28:22.354Z,143.50
2022-12-24T21:31:29.615Z,128.32
2022-12-24T21:34:38.187Z,128.20
2022-12-24T21:37:44.695Z,127.32
2022-12-24T21:40:50.620Z,125.25
2022-12-24T21:43:58.601Z,149.40
2022-12-24T21:47:05.167Z,127.12
2022-12-24T21:50:32.261Z,143.95
2022-12-24T21:53:56.472Z,140.80
2022-12-24T21:57:20.400Z,139.12
2022-12-24T22:00:31.655Z,128.97
2022-12-24T22:03:37.960Z,126.42
2022-12-24T22:07:01.957Z,130.67
2022-12-24T22:10:20.902Z,121.67
2022-12-24T22:13:16.288Z,126.80
2022-12-24T22:16:22.413Z,120.77
2022-12-24T22:19:28.444Z,114.88
2022-12-24T22:22:34.971Z,132.55
2022-12-24T22:25:40.049Z,124.55
2022-12-24T22:28:46.566Z,131.80
2022-12-24T22:31:54.238Z,151.42
2022-12-24T22:35:00.716Z,119.42
2022-12-24T22:38:06.030Z,132.50
2022-12-24T22:41:11.867Z,130.75
2022-12-24T22:44:17.229Z,121.77
2022-12-24T22:47:23.540Z,108.30
2022-12-24T22:50:30.318Z,131.45
2022-12-24T22:53:36.143Z,125.22
2022-12-24T22:56:42.565Z,127.05
2022-12-24T22:59:48.216Z,120.28
2022-12-24T23:02:54.852Z,135.10
2022-12-24T23:06:00.820Z,130.15
2022-12-24T23:09:07.336Z,124.15
2022-12-24T23:12:13.825Z,126.58
2022-12-24T23:15:21.074Z,139.45
2022-12-24T23:18:26.926Z,142.20
2022-12-24T23:21:27.253Z,157.18
2022-12-24T23:24:33.119Z,188.57
2022-12-24T23:27:39.112Z,160.57
2022-12-24T23:30:45.066Z,160.85
2022-12-24T23:33:51.052Z,156.37
2022-12-24T23:36:57.283Z,149.05
2022-12-24T23:40:03.955Z,155.10
2022-12-24T23:43:10.222Z,140.25
2022-12-24T23:46:17.736Z,151.27
2022-12-24T23:49:28.390Z,150.20
2022-12-24T23:52:34.331Z,140.15
2022-12-24T23:55:41.915Z,129.15
2022-12-24T23:58:47.182Z,124.78
